sensor_id;sensor_type;location;lat;lon;timestamp;pressure;altitude;pressure_sealevel;temperature;humidity
21401;BME280;18038;50.166;18.908;2023-02-14T00:01:11;99762.97;;;1.45;82.28
21401;BME280;18038;50.166;18.908;2023-02-14T00:04:19;99759.88;;;1.24;83.39
21401;BME280;18038;50.166;18.908;2023-02-14T00:07:25;99764.78;;;1.45;83.43
21401;BME280;18038;50.166;18.908;2023-02-14T00:10:31;99758.84;;;1.41;83.37
21401;BME280;18038;50.166;18.908;2023-02-14T00:13:38;99764.59;;;1.34;83.29
21401;BME280;18038;50.166;18.908;2023-02-14T00:17:07;99769.66;;;1.51;83.77
21401;BME280;18038;50.166;18.908;2023-02-14T00:20:11;99774.00;;;1.52;83.06
21401;BME280;18038;50.166;18.908;2023-02-14T00:23:18;99775.97;;;1.63;83.21
21401;BME280;18038;50.166;18.908;2023-02-14T00:26:23;99778.28;;;1.67;82.47
21401;BME280;18038;50.166;18.908;2023-02-14T00:29:31;99772.09;;;1.54;82.15
21401;BME280;18038;50.166;18.908;2023-02-14T00:32:41;99780.47;;;1.46;82.20
21401;BME280;18038;50.166;18.908;2023-02-14T00:35:48;99779.44;;;1.49;82.67
21401;BME280;18038;50.166;18.908;2023-02-14T00:38:55;99778.69;;;1.61;82.68
21401;BME280;18038;50.166;18.908;2023-02-14T00:42:02;99784.72;;;1.63;82.18
21401;BME280;18038;50.166;18.908;2023-02-14T00:45:08;99785.75;;;1.61;82.20
21401;BME280;18038;50.166;18.908;2023-02-14T00:48:18;99781.88;;;1.66;81.71
21401;BME280;18038;50.166;18.908;2023-02-14T00:51:25;99785.63;;;1.62;81.66
21401;BME280;18038;50.166;18.908;2023-02-14T00:54:32;99765.72;;;1.58;81.92
21401;BME280;18038;50.166;18.908;2023-02-14T00:57:40;99773.13;;;1.51;81.92
21401;BME280;18038;50.166;18.908;2023-02-14T01:00:46;99781.91;;;1.52;81.41
21401;BME280;18038;50.166;18.908;2023-02-14T01:03:57;99760.63;;;1.41;81.67
21401;BME280;18038;50.166;18.908;2023-02-14T01:07:04;99784.22;;;1.57;81.19
21401;BME280;18038;50.166;18.908;2023-02-14T01:10:10;99779.34;;;1.50;81.48
21401;BME280;18038;50.166;18.908;2023-02-14T01:13:18;99781.13;;;1.50;81.28
21401;BME280;18038;50.166;18.908;2023-02-14T01:16:26;99782.34;;;1.59;81.23
21401;BME280;18038;50.166;18.908;2023-02-14T01:19:38;99780.38;;;1.62;80.65
21401;BME280;18038;50.166;18.908;2023-02-14T01:22:43;99774.94;;;1.65;80.55
21401;BME280;18038;50.166;18.908;2023-02-14T01:25:50;99773.50;;;1.60;80.16
21401;BME280;18038;50.166;18.908;2023-02-14T01:28:56;99764.09;;;1.56;80.39
21401;BME280;18038;50.166;18.908;2023-02-14T01:32:04;99773.13;;;1.51;80.56
21401;BME280;18038;50.166;18.908;2023-02-14T01:35:13;99767.28;;;1.46;80.62
21401;BME280;18038;50.166;18.908;2023-02-14T01:38:19;99766.25;;;1.49;80.96
21401;BME280;18038;50.166;18.908;2023-02-14T01:41:27;99759.41;;;1.46;80.59
21401;BME280;18038;50.166;18.908;2023-02-14T01:44:56;99759.59;;;1.43;80.14
21401;BME280;18038;50.166;18.908;2023-02-14T01:48:08;99761.84;;;1.35;80.64
21401;BME280;18038;50.166;18.908;2023-02-14T01:51:19;99742.38;;;1.38;80.62
21401;BME280;18038;50.166;18.908;2023-02-14T01:54:30;99741.91;;;1.45;80.07
21401;BME280;18038;50.166;18.908;2023-02-14T01:57:48;99747.00;;;1.48;80.06
21401;BME280;18038;50.166;18.908;2023-02-14T02:00:58;99746.53;;;1.42;79.85
21401;BME280;18038;50.166;18.908;2023-02-14T02:04:10;99739.94;;;1.35;80.12
21401;BME280;18038;50.166;18.908;2023-02-14T02:07:26;99734.31;;;1.26;80.36
21401;BME280;18038;50.166;18.908;2023-02-14T02:10:35;99738.16;;;1.35;80.00
21401;BME280;18038;50.166;18.908;2023-02-14T02:13:41;99734.69;;;1.35;79.48
21401;BME280;18038;50.166;18.908;2023-02-14T02:17:11;99740.91;;;1.34;79.31
21401;BME280;18038;50.166;18.908;2023-02-14T02:20:48;99737.50;;;1.46;78.83
21401;BME280;18038;50.166;18.908;2023-02-14T02:24:24;99729.78;;;1.43;78.39
21401;BME280;18038;50.166;18.908;2023-02-14T02:27:54;99732.63;;;1.40;78.38
21401;BME280;18038;50.166;18.908;2023-02-14T02:31:31;99740.50;;;1.40;77.68
21401;BME280;18038;50.166;18.908;2023-02-14T02:35:30;99739.56;;;1.41;77.36
21401;BME280;18038;50.166;18.908;2023-02-14T02:39:03;99746.16;;;1.48;77.31
21401;BME280;18038;50.166;18.908;2023-02-14T02:42:26;99748.69;;;1.49;76.79
21401;BME280;18038;50.166;18.908;2023-02-14T02:45:49;99741.53;;;1.51;76.87
21401;BME280;18038;50.166;18.908;2023-02-14T02:49:29;99751.31;;;1.35;77.08
21401;BME280;18038;50.166;18.908;2023-02-14T02:53:04;99749.53;;;1.36;77.20
21401;BME280;18038;50.166;18.908;2023-02-14T02:56:21;99741.06;;;1.45;76.66
21401;BME280;18038;50.166;18.908;2023-02-14T02:59:46;99754.59;;;1.53;76.33
21401;BME280;18038;50.166;18.908;2023-02-14T03:02:58;99746.31;;;1.59;75.61
21401;BME280;18038;50.166;18.908;2023-02-14T03:06:17;99749.63;;;1.63;75.32
21401;BME280;18038;50.166;18.908;2023-02-14T03:09:54;99705.16;;;1.29;75.52
21401;BME280;18038;50.166;18.908;2023-02-14T03:13:38;99744.00;;;1.55;75.61
21401;BME280;18038;50.166;18.908;2023-02-14T03:17:15;99738.81;;;1.53;75.22
21401;BME280;18038;50.166;18.908;2023-02-14T03:20:48;99712.00;;;1.46;75.21
21401;BME280;18038;50.166;18.908;2023-02-14T03:24:10;99743.25;;;1.53;74.83
21401;BME280;18038;50.166;18.908;2023-02-14T03:27:27;99740.69;;;1.51;75.09
21401;BME280;18038;50.166;18.908;2023-02-14T03:30:47;99723.66;;;1.28;75.17
21401;BME280;18038;50.166;18.908;2023-02-14T03:34:09;99744.25;;;1.36;75.22
21401;BME280;18038;50.166;18.908;2023-02-14T03:37:28;99741.44;;;1.24;75.86
21401;BME280;18038;50.166;18.908;2023-02-14T03:40:45;99745.59;;;1.28;75.58
21401;BME280;18038;50.166;18.908;2023-02-14T03:44:05;99757.44;;;1.36;75.64
21401;BME280;18038;50.166;18.908;2023-02-14T03:47:19;99759.59;;;1.43;75.07
21401;BME280;18038;50.166;18.908;2023-02-14T03:50:31;99756.88;;;1.45;75.31
21401;BME280;18038;50.166;18.908;2023-02-14T03:53:43;99750.47;;;1.49;74.76
21401;BME280;18038;50.166;18.908;2023-02-14T03:57:03;99752.53;;;1.44;74.38
21401;BME280;18038;50.166;18.908;2023-02-14T04:00:20;99758.56;;;1.46;75.20
21401;BME280;18038;50.166;18.908;2023-02-14T04:03:33;99752.44;;;1.45;74.83
21401;BME280;18038;50.166;18.908;2023-02-14T04:06:46;99755.16;;;1.44;74.99
21401;BME280;18038;50.166;18.908;2023-02-14T04:09:53;99753.47;;;1.43;75.46
21401;BME280;18038;50.166;18.908;2023-02-14T04:12:59;99750.56;;;1.47;74.52
21401;BME280;18038;50.166;18.908;2023-02-14T04:16:12;99754.81;;;1.50;74.93
21401;BME280;18038;50.166;18.908;2023-02-14T04:19:18;99748.69;;;1.49;74.90
21401;BME280;18038;50.166;18.908;2023-02-14T04:22:30;99746.34;;;1.45;74.32
21401;BME280;18038;50.166;18.908;2023-02-14T04:25:36;99748.88;;;1.46;74.63
21401;BME280;18038;50.166;18.908;2023-02-14T04:28:45;99747.00;;;1.48;74.51
21401;BME280;18038;50.166;18.908;2023-02-14T04:31:53;99745.88;;;1.53;74.61
21401;BME280;18038;50.166;18.908;2023-02-14T04:35:00;99746.72;;;1.53;74.11
21401;BME280;18038;50.166;18.908;2023-02-14T04:38:10;99747.38;;;1.42;74.67
21401;BME280;18038;50.166;18.908;2023-02-14T04:41:16;99750.84;;;1.43;74.57
21401;BME280;18038;50.166;18.908;2023-02-14T04:44:22;99751.03;;;1.40;74.68
21401;BME280;18038;50.166;18.908;2023-02-14T04:47:32;99755.00;;;1.47;74.89
21401;BME280;18038;50.166;18.908;2023-02-14T04:50:38;99748.59;;;1.37;74.99
21401;BME280;18038;50.166;18.908;2023-02-14T04:53:49;99760.44;;;1.44;75.26
21401;BME280;18038;50.166;18.908;2023-02-14T04:56:55;99762.97;;;1.45;74.79
21401;BME280;18038;50.166;18.908;2023-02-14T05:00:06;99762.13;;;1.45;74.78
21401;BME280;18038;50.166;18.908;2023-02-14T05:03:16;99767.97;;;1.50;74.94
21401;BME280;18038;50.166;18.908;2023-02-14T05:06:29;99768.91;;;1.49;75.24
21401;BME280;18038;50.166;18.908;2023-02-14T05:09:35;99769.28;;;1.43;74.93
21401;BME280;18038;50.166;18.908;2023-02-14T05:12:42;99771.81;;;1.30;75.10
21401;BME280;18038;50.166;18.908;2023-02-14T05:15:48;99778.97;;;1.42;75.28
21401;BME280;18038;50.166;18.908;2023-02-14T05:18:58;99779.25;;;1.38;75.88
21401;BME280;18038;50.166;18.908;2023-02-14T05:22:04;99772.09;;;1.40;75.56
21401;BME280;18038;50.166;18.908;2023-02-14T05:25:10;99776.81;;;1.35;75.42
21401;BME280;18038;50.166;18.908;2023-02-14T05:28:17;99775.59;;;1.26;75.87
21401;BME280;18038;50.166;18.908;2023-02-14T05:31:24;99779.25;;;1.23;75.91
21401;BME280;18038;50.166;18.908;2023-02-14T05:34:33;99781.38;;;1.17;75.80
21401;BME280;18038;50.166;18.908;2023-02-14T05:37:42;99779.59;;;1.17;75.86
21401;BME280;18038;50.166;18.908;2023-02-14T05:40:48;99784.84;;;1.17;76.03
21401;BME280;18038;50.166;18.908;2023-02-14T05:43:54;99780.16;;;1.08;76.08
21401;BME280;18038;50.166;18.908;2023-02-14T05:47:00;99793.31;;;1.08;75.83
21401;BME280;18038;50.166;18.908;2023-02-14T05:50:10;99790.69;;;1.08;76.04
21401;BME280;18038;50.166;18.908;2023-02-14T05:53:16;99785.50;;;1.06;76.00
21401;BME280;18038;50.166;18.908;2023-02-14T05:56:23;99779.50;;;1.04;76.07
21401;BME280;18038;50.166;18.908;2023-02-14T05:59:29;99781.28;;;1.04;76.09
21401;BME280;18038;50.166;18.908;2023-02-14T06:02:36;99783.16;;;1.02;75.87
21401;BME280;18038;50.166;18.908;2023-02-14T06:05:44;99791.41;;;0.96;75.57
21401;BME280;18038;50.166;18.908;2023-02-14T06:08:51;99790.38;;;0.98;76.13
21401;BME280;18038;50.166;18.908;2023-02-14T06:11:57;99795.69;;;1.13;75.66
21401;BME280;18038;50.166;18.908;2023-02-14T06:15:04;99798.91;;;1.18;75.42
21401;BME280;18038;50.166;18.908;2023-02-14T06:18:11;99804.03;;;1.19;74.90
21401;BME280;18038;50.166;18.908;2023-02-14T06:21:21;99799.81;;;1.17;74.88
21401;BME280;18038;50.166;18.908;2023-02-14T06:24:26;99801.59;;;1.16;74.91
21401;BME280;18038;50.166;18.908;2023-02-14T06:27:33;99805.56;;;1.23;74.62
21401;BME280;18038;50.166;18.908;2023-02-14T06:30:40;99801.53;;;1.18;74.44
21401;BME280;18038;50.166;18.908;2023-02-14T06:33:47;99803.03;;;1.22;74.94
21401;BME280;18038;50.166;18.908;2023-02-14T06:36:56;99801.72;;;1.29;74.33
21401;BME280;18038;50.166;18.908;2023-02-14T06:40:04;99793.63;;;1.32;74.04
21401;BME280;18038;50.166;18.908;2023-02-14T06:43:11;99800.78;;;1.30;74.06
21401;BME280;18038;50.166;18.908;2023-02-14T06:46:18;99802.47;;;1.31;73.79
21401;BME280;18038;50.166;18.908;2023-02-14T06:49:24;99811.50;;;1.27;73.78
21401;BME280;18038;50.166;18.908;2023-02-14T06:52:34;99802.25;;;1.20;74.18
21401;BME280;18038;50.166;18.908;2023-02-14T06:55:40;99791.44;;;1.10;74.27
21401;BME280;18038;50.166;18.908;2023-02-14T06:58:47;99808.78;;;1.28;73.96
21401;BME280;18038;50.166;18.908;2023-02-14T07:01:53;99814.63;;;1.34;73.83
21401;BME280;18038;50.166;18.908;2023-02-14T07:05:00;99813.34;;;1.25;73.80
21401;BME280;18038;50.166;18.908;2023-02-14T07:08:08;99822.47;;;1.19;73.94
21401;BME280;18038;50.166;18.908;2023-02-14T07:11:15;99816.09;;;1.23;74.20
21401;BME280;18038;50.166;18.908;2023-02-14T07:14:21;99824.38;;;1.32;73.71
21401;BME280;18038;50.166;18.908;2023-02-14T07:17:28;99820.25;;;1.42;74.17
21401;BME280;18038;50.166;18.908;2023-02-14T07:20:34;99813.28;;;1.41;73.52
21401;BME280;18038;50.166;18.908;2023-02-14T07:23:43;99821.56;;;1.49;73.43
21401;BME280;18038;50.166;18.908;2023-02-14T07:26:51;99823.38;;;1.63;72.96
21401;BME280;18038;50.166;18.908;2023-02-14T07:29:58;99824.31;;;1.62;72.56
21401;BME280;18038;50.166;18.908;2023-02-14T07:33:04;99816.31;;;1.63;72.37
21401;BME280;18038;50.166;18.908;2023-02-14T07:36:11;99815.63;;;1.60;72.38
21401;BME280;18038;50.166;18.908;2023-02-14T07:39:19;99818.13;;;1.63;72.51
21401;BME280;18038;50.166;18.908;2023-02-14T07:42:26;99826.47;;;1.69;72.26
21401;BME280;18038;50.166;18.908;2023-02-14T07:45:33;99827.88;;;1.61;72.68
21401;BME280;18038;50.166;18.908;2023-02-14T07:48:39;99824.75;;;1.54;72.93
21401;BME280;18038;50.166;18.908;2023-02-14T07:51:45;99821.00;;;1.44;72.86
21401;BME280;18038;50.166;18.908;2023-02-14T07:54:55;99827.00;;;1.46;73.55
21401;BME280;18038;50.166;18.908;2023-02-14T07:58:01;99819.88;;;1.62;72.75
21401;BME280;18038;50.166;18.908;2023-02-14T08:01:08;99829.09;;;1.69;72.29
21401;BME280;18038;50.166;18.908;2023-02-14T08:04:14;99824.88;;;1.67;72.37
21401;BME280;18038;50.166;18.908;2023-02-14T08:07:20;99818.75;;;1.81;72.47
21401;BME280;18038;50.166;18.908;2023-02-14T08:10:29;99826.25;;;2.01;71.40
21401;BME280;18038;50.166;18.908;2023-02-14T08:13:36;99819.38;;;1.99;71.69
21401;BME280;18038;50.166;18.908;2023-02-14T08:16:42;99819.13;;;1.75;71.82
21401;BME280;18038;50.166;18.908;2023-02-14T08:19:48;99824.97;;;1.80;72.25
21401;BME280;18038;50.166;18.908;2023-02-14T08:22:55;99836.44;;;1.93;71.60
21401;BME280;18038;50.166;18.908;2023-02-14T08:26:05;99837.47;;;1.90;71.75
21401;BME280;18038;50.166;18.908;2023-02-14T08:29:11;99838.78;;;1.98;71.54
21401;BME280;18038;50.166;18.908;2023-02-14T08:32:19;99835.88;;;2.02;71.60
21401;BME280;18038;50.166;18.908;2023-02-14T08:35:25;99834.16;;;2.15;71.11
21401;BME280;18038;50.166;18.908;2023-02-14T08:38:31;99837.84;;;2.13;70.87
21401;BME280;18038;50.166;18.908;2023-02-14T08:41:40;99835.91;;;2.15;70.65
21401;BME280;18038;50.166;18.908;2023-02-14T08:44:47;99839.94;;;2.21;70.27
21401;BME280;18038;50.166;18.908;2023-02-14T08:47:53;99845.41;;;2.32;70.33
21401;BME280;18038;50.166;18.908;2023-02-14T08:51:04;99840.16;;;2.32;69.63
21401;BME280;18038;50.166;18.908;2023-02-14T08:54:11;99845.91;;;2.24;69.82
21401;BME280;18038;50.166;18.908;2023-02-14T08:57:20;99850.78;;;2.30;70.61
21401;BME280;18038;50.166;18.908;2023-02-14T09:00:26;99856.53;;;2.23;70.04
21401;BME280;18038;50.166;18.908;2023-02-14T09:03:33;99849.19;;;2.28;70.07
21401;BME280;18038;50.166;18.908;2023-02-14T09:06:40;99850.09;;;2.41;69.96
21401;BME280;18038;50.166;18.908;2023-02-14T09:09:46;99848.69;;;2.35;69.93
21401;BME280;18038;50.166;18.908;2023-02-14T09:12:55;99856.75;;;2.47;69.12
21401;BME280;18038;50.166;18.908;2023-02-14T09:16:03;99856.81;;;2.59;68.77
21401;BME280;18038;50.166;18.908;2023-02-14T09:19:10;99852.78;;;2.81;67.95
21401;BME280;18038;50.166;18.908;2023-02-14T09:22:18;99843.75;;;2.71;68.41
21401;BME280;18038;50.166;18.908;2023-02-14T09:25:24;99857.97;;;2.82;68.20
21401;BME280;18038;50.166;18.908;2023-02-14T09:28:34;99845.91;;;2.78;68.59
21401;BME280;18038;50.166;18.908;2023-02-14T09:31:41;99850.72;;;2.99;68.38
21401;BME280;18038;50.166;18.908;2023-02-14T09:34:47;99849.00;;;3.12;67.56
21401;BME280;18038;50.166;18.908;2023-02-14T09:37:54;99854.38;;;2.83;67.37
21401;BME280;18038;50.166;18.908;2023-02-14T09:41:04;99868.06;;;2.76;68.05
21401;BME280;18038;50.166;18.908;2023-02-14T09:44:23;99865.25;;;3.06;68.04
21401;BME280;18038;50.166;18.908;2023-02-14T09:47:43;99867.16;;;3.17;68.46
21401;BME280;18038;50.166;18.908;2023-02-14T09:50:58;99860.19;;;3.16;66.95
21401;BME280;18038;50.166;18.908;2023-02-14T09:54:12;99870.47;;;3.33;67.53
21401;BME280;18038;50.166;18.908;2023-02-14T09:57:33;99859.63;;;3.51;65.98
21401;BME280;18038;50.166;18.908;2023-02-14T10:00:58;99854.91;;;3.16;66.48
21401;BME280;18038;50.166;18.908;2023-02-14T10:04:26;99847.66;;;3.45;66.47
21401;BME280;18038;50.166;18.908;2023-02-14T10:07:59;99858.22;;;3.32;65.73
21401;BME280;18038;50.166;18.908;2023-02-14T10:11:17;99857.44;;;3.17;66.46
21401;BME280;18038;50.166;18.908;2023-02-14T10:14:30;99853.47;;;3.50;66.00
21401;BME280;18038;50.166;18.908;2023-02-14T10:17:48;99858.22;;;3.83;65.10
21401;BME280;18038;50.166;18.908;2023-02-14T10:21:01;99854.28;;;4.14;64.13
21401;BME280;18038;50.166;18.908;2023-02-14T10:24:15;99854.38;;;4.00;63.87
21401;BME280;18038;50.166;18.908;2023-02-14T10:27:31;99854.28;;;4.14;63.56
21401;BME280;18038;50.166;18.908;2023-02-14T10:30:51;99851.91;;;4.23;63.54
21401;BME280;18038;50.166;18.908;2023-02-14T10:34:14;99857.91;;;4.01;62.81
21401;BME280;18038;50.166;18.908;2023-02-14T10:37:40;99856.63;;;4.06;63.62
21401;BME280;18038;50.166;18.908;2023-02-14T10:41:24;99856.50;;;4.08;63.02
21401;BME280;18038;50.166;18.908;2023-02-14T10:44:45;99851.47;;;4.29;62.50
21401;BME280;18038;50.166;18.908;2023-02-14T10:48:11;99851.91;;;4.23;62.82
21401;BME280;18038;50.166;18.908;2023-02-14T10:51:37;99846.66;;;4.10;63.34
21401;BME280;18038;50.166;18.908;2023-02-14T10:54:54;99848.38;;;3.98;63.85
21401;BME280;18038;50.166;18.908;2023-02-14T10:58:06;99843.19;;;3.84;63.96
21401;BME280;18038;50.166;18.908;2023-02-14T11:01:18;99838.97;;;3.81;63.72
21401;BME280;18038;50.166;18.908;2023-02-14T11:04:26;99835.94;;;3.62;63.93
21401;BME280;18038;50.166;18.908;2023-02-14T11:07:38;99830.22;;;3.81;64.53
21401;BME280;18038;50.166;18.908;2023-02-14T11:10:44;99827.34;;;3.84;62.58
21401;BME280;18038;50.166;18.908;2023-02-14T11:13:52;99822.91;;;3.84;63.33
21401;BME280;18038;50.166;18.908;2023-02-14T11:16:59;99823.03;;;3.83;64.34
21401;BME280;18038;50.166;18.908;2023-02-14T11:20:27;99828.63;;;3.65;63.64
21401;BME280;18038;50.166;18.908;2023-02-14T11:23:38;99823.34;;;3.65;63.58
21401;BME280;18038;50.166;18.908;2023-02-14T11:26:48;99821.44;;;3.80;63.84
21401;BME280;18038;50.166;18.908;2023-02-14T11:29:59;99822.06;;;3.84;64.27
21401;BME280;18038;50.166;18.908;2023-02-14T11:33:10;99818.72;;;3.69;64.46
21401;BME280;18038;50.166;18.908;2023-02-14T11:36:29;99817.81;;;3.94;64.77
21401;BME280;18038;50.166;18.908;2023-02-14T11:39:39;99818.56;;;3.83;62.97
21401;BME280;18038;50.166;18.908;2023-02-14T11:42:46;99809.81;;;3.70;61.65
21401;BME280;18038;50.166;18.908;2023-02-14T11:46:14;99804.63;;;3.68;61.85
21401;BME280;18038;50.166;18.908;2023-02-14T11:49:32;99810.56;;;3.46;63.16
21401;BME280;18038;50.166;18.908;2023-02-14T11:52:50;99804.94;;;3.77;63.48
21401;BME280;18038;50.166;18.908;2023-02-14T11:56:11;99797.34;;;3.72;64.28
21401;BME280;18038;50.166;18.908;2023-02-14T11:59:27;99804.63;;;3.81;63.84
21401;BME280;18038;50.166;18.908;2023-02-14T12:02:38;99784.53;;;3.79;63.30
21401;BME280;18038;50.166;18.908;2023-02-14T12:05:49;99787.66;;;3.97;63.29
21401;BME280;18038;50.166;18.908;2023-02-14T12:09:11;99789.44;;;4.09;62.90
21401;BME280;18038;50.166;18.908;2023-02-14T12:12:31;99776.34;;;3.95;63.46
21401;BME280;18038;50.166;18.908;2023-02-14T12:15:51;99779.09;;;3.31;63.27
21401;BME280;18038;50.166;18.908;2023-02-14T12:19:01;99790.41;;;3.45;63.22
21401;BME280;18038;50.166;18.908;2023-02-14T12:22:17;99786.25;;;3.41;63.60
21401;BME280;18038;50.166;18.908;2023-02-14T12:25:39;99784.28;;;3.32;63.90
21401;BME280;18038;50.166;18.908;2023-02-14T12:29:01;99774.94;;;3.65;63.11
21401;BME280;18038;50.166;18.908;2023-02-14T12:32:20;99764.41;;;3.89;62.39
21401;BME280;18038;50.166;18.908;2023-02-14T12:35:48;99765.56;;;3.98;62.20
21401;BME280;18038;50.166;18.908;2023-02-14T12:39:24;99766.75;;;3.93;62.40
21401;BME280;18038;50.166;18.908;2023-02-14T12:42:55;99765.53;;;3.61;63.01
21401;BME280;18038;50.166;18.908;2023-02-14T12:46:31;99757.94;;;3.69;63.36
21401;BME280;18038;50.166;18.908;2023-02-14T12:50:23;99757.06;;;3.68;62.86
21401;BME280;18038;50.166;18.908;2023-02-14T12:54:03;99749.66;;;3.61;63.49
21401;BME280;18038;50.166;18.908;2023-02-14T12:57:41;99757.88;;;3.32;63.77
21401;BME280;18038;50.166;18.908;2023-02-14T13:01:09;99757.88;;;3.32;63.44
21401;BME280;18038;50.166;18.908;2023-02-14T13:04:55;99751.31;;;3.38;63.21
21401;BME280;18038;50.166;18.908;2023-02-14T13:08:18;99753.41;;;3.07;64.30
21401;BME280;18038;50.166;18.908;2023-02-14T13:11:51;99753.41;;;3.33;64.11
21401;BME280;18038;50.166;18.908;2023-02-14T13:15:16;99747.06;;;3.48;64.07
21401;BME280;18038;50.166;18.908;2023-02-14T13:18:42;99737.09;;;3.64;63.35
21401;BME280;18038;50.166;18.908;2023-02-14T13:22:00;99747.16;;;3.59;63.26
21401;BME280;18038;50.166;18.908;2023-02-14T13:25:21;99732.75;;;3.63;62.83
21401;BME280;18038;50.166;18.908;2023-02-14T13:28:36;99730.56;;;3.57;63.33
21401;BME280;18038;50.166;18.908;2023-02-14T13:31:47;99733.81;;;3.61;63.10
21401;BME280;18038;50.166;18.908;2023-02-14T13:35:00;99737.66;;;3.44;63.51
21401;BME280;18038;50.166;18.908;2023-02-14T13:38:13;99741.88;;;3.34;63.69
21401;BME280;18038;50.166;18.908;2023-02-14T13:41:26;99729.97;;;3.28;63.75
21401;BME280;18038;50.166;18.908;2023-02-14T13:44:44;99735.78;;;3.33;63.99
21401;BME280;18038;50.166;18.908;2023-02-14T13:48:01;99730.91;;;3.40;64.25
21401;BME280;18038;50.166;18.908;2023-02-14T13:51:12;99734.50;;;3.26;64.42
21401;BME280;18038;50.166;18.908;2023-02-14T13:54:30;99723.09;;;3.38;64.52
21401;BME280;18038;50.166;18.908;2023-02-14T13:58:00;99732.44;;;3.68;63.73
21401;BME280;18038;50.166;18.908;2023-02-14T14:01:28;99733.78;;;3.74;63.74
21401;BME280;18038;50.166;18.908;2023-02-14T14:04:37;99735.63;;;3.47;63.71
21401;BME280;18038;50.166;18.908;2023-02-14T14:07:44;99735.25;;;3.41;64.30
21401;BME280;18038;50.166;18.908;2023-02-14T14:10:54;99736.69;;;3.58;64.22
21401;BME280;18038;50.166;18.908;2023-02-14T14:14:35;99734.88;;;3.58;63.36
21401;BME280;18038;50.166;18.908;2023-02-14T14:17:45;99741.44;;;3.65;62.85
21401;BME280;18038;50.166;18.908;2023-02-14T14:20:53;99729.41;;;3.48;62.76
21401;BME280;18038;50.166;18.908;2023-02-14T14:24:20;99738.84;;;3.40;63.75
21401;BME280;18038;50.166;18.908;2023-02-14T14:27:33;99734.19;;;3.43;63.94
21401;BME280;18038;50.166;18.908;2023-02-14T14:30:44;99733.22;;;3.44;64.13
21401;BME280;18038;50.166;18.908;2023-02-14T14:33:57;99731.94;;;3.50;64.40
21401;BME280;18038;50.166;18.908;2023-02-14T14:37:13;99735.97;;;3.43;64.61
21401;BME280;18038;50.166;18.908;2023-02-14T14:40:26;99743.66;;;3.59;63.83
21401;BME280;18038;50.166;18.908;2023-02-14T14:43:38;99741.44;;;3.53;64.11
21401;BME280;18038;50.166;18.908;2023-02-14T14:46:46;99737.34;;;3.48;64.08
21401;BME280;18038;50.166;18.908;2023-02-14T14:49:58;99743.16;;;3.54;63.67
21401;BME280;18038;50.166;18.908;2023-02-14T14:53:21;99739.63;;;3.66;63.66
21401;BME280;18038;50.166;18.908;2023-02-14T14:56:35;99730.25;;;3.62;63.76
21401;BME280;18038;50.166;18.908;2023-02-14T15:00:16;99738.69;;;3.67;63.39
21401;BME280;18038;50.166;18.908;2023-02-14T15:03:33;99729.41;;;3.48;64.34
21401;BME280;18038;50.166;18.908;2023-02-14T15:06:40;99731.94;;;3.50;63.81
21401;BME280;18038;50.166;18.908;2023-02-14T15:09:48;99733.88;;;3.35;65.22
21401;BME280;18038;50.166;18.908;2023-02-14T15:12:57;99724.25;;;3.34;64.94
21401;BME280;18038;50.166;18.908;2023-02-14T15:16:25;99731.97;;;3.12;63.84
21401;BME280;18038;50.166;18.908;2023-02-14T15:19:43;99731.97;;;3.12;64.69
21401;BME280;18038;50.166;18.908;2023-02-14T15:22:52;99731.66;;;3.16;64.34
21401;BME280;18038;50.166;18.908;2023-02-14T15:26:00;99723.91;;;2.88;64.74
21401;BME280;18038;50.166;18.908;2023-02-14T15:29:20;99735.31;;;3.01;64.87
21401;BME280;18038;50.166;18.908;2023-02-14T15:32:34;99726.38;;;3.16;64.60
21401;BME280;18038;50.166;18.908;2023-02-14T15:35:42;99734.41;;;3.15;63.80
21401;BME280;18038;50.166;18.908;2023-02-14T15:38:56;99737.84;;;3.02;64.64
21401;BME280;18038;50.166;18.908;2023-02-14T15:42:19;99738.06;;;2.99;64.67
21401;BME280;18038;50.166;18.908;2023-02-14T15:45:33;99734.31;;;3.03;65.13
21401;BME280;18038;50.166;18.908;2023-02-14T15:48:43;99733.75;;;2.98;64.87
21401;BME280;18038;50.166;18.908;2023-02-14T15:51:51;99734.56;;;2.99;65.80
21401;BME280;18038;50.166;18.908;2023-02-14T15:54:59;99735.97;;;3.04;65.90
21401;BME280;18038;50.166;18.908;2023-02-14T15:58:20;99730.81;;;3.16;65.20
21401;BME280;18038;50.166;18.908;2023-02-14T16:01:33;99732.38;;;3.18;65.75
21401;BME280;18038;50.166;18.908;2023-02-14T16:04:53;99734.19;;;3.18;65.69
21401;BME280;18038;50.166;18.908;2023-02-14T16:08:26;99746.19;;;2.96;65.20
21401;BME280;18038;50.166;18.908;2023-02-14T16:11:36;99741.41;;;2.76;66.51
21401;BME280;18038;50.166;18.908;2023-02-14T16:14:44;99749.66;;;2.84;66.36
21401;BME280;18038;50.166;18.908;2023-02-14T16:18:16;99748.50;;;2.88;65.95
21401;BME280;18038;50.166;18.908;2023-02-14T16:21:28;99748.28;;;2.91;65.81
21401;BME280;18038;50.166;18.908;2023-02-14T16:24:38;99759.28;;;2.98;66.32
21401;BME280;18038;50.166;18.908;2023-02-14T16:27:44;99752.44;;;2.95;66.24
21401;BME280;18038;50.166;18.908;2023-02-14T16:30:56;99756.44;;;3.01;66.33
21401;BME280;18038;50.166;18.908;2023-02-14T16:34:08;99763.69;;;2.97;66.26
21401;BME280;18038;50.166;18.908;2023-02-14T16:37:23;99760.88;;;3.00;66.10
21401;BME280;18038;50.166;18.908;2023-02-14T16:40:41;99751.59;;;2.95;66.42
21401;BME280;18038;50.166;18.908;2023-02-14T16:43:50;99766.88;;;2.90;66.40
21401;BME280;18038;50.166;18.908;2023-02-14T16:46:56;99770.56;;;2.87;66.43
21401;BME280;18038;50.166;18.908;2023-02-14T16:50:06;99763.59;;;2.86;66.85
21401;BME280;18038;50.166;18.908;2023-02-14T16:53:26;99768.91;;;2.99;66.85
21401;BME280;18038;50.166;18.908;2023-02-14T16:56:44;99771.44;;;3.00;66.14
21401;BME280;18038;50.166;18.908;2023-02-14T16:59:55;99771.44;;;3.00;66.92
21401;BME280;18038;50.166;18.908;2023-02-14T17:03:05;99774.09;;;3.00;66.13
21401;BME280;18038;50.166;18.908;2023-02-14T17:06:19;99782.31;;;2.96;66.60